Kissimmee Gateway Airport
KISM : now visible

Airfield :











YOU CAN JOIN US ON...

 
LOGIN :

Register | Disclaimer

   EN    FR    IT 

 









Legend :    VFR   Marginal VFR   IFR   Intensive IFR   Very Intensive IFR
Visi :
Ceiling :
>= 8 km
>= 3000ft
5 to 8 km
1000 to 3000 ft
1500m to 5 km
500 to 1000 ft
800 to 1500m
200 to 500 ft
< 800m
< 200 ft
Symbols :   Thunderstorms  Fog  Heavy snow  Heavy precipitations  Wind > 20 kt







- Airport Elevation : 82 ft


KISM - Kissimmee Gateway

CURRENT METAR :
  • 191356Z 15007KT 10SM CLR 29/25 A3014 RMK AO2 SLP206 T02940250 PNO $

EXPIRED METARs :
  • 191256Z 14004KT 10SM CLR 28/25 A3012 RMK AO2 SLP201 T02780250 PNO $
  • 191156Z 31003KT 10SM CLR 26/24 A3010 RMK AO2 SLP194 6//// 7//// T02610239 10261 20239 51011 PNO $

TAF KISM
Valid from the 19 at 12:00 until the 20 at 12:00 UTC


191123Z 1912/2012 00000KT P6SM FEW250
FM191400 15005KT P6SM SCT035
FM192000 16008KT P6SM VCTS SCT040CB SCT060 BKN250
TEMPO 1921/1923 3SM TSRA BKN025CB
FM200100 VRB03KT P6SM FEW050 SCT100 BKN250
KZMA FIR / North America



MET'MAP, your aeronautical weather chart ! - Copyright ORBIFLY December 2007 - Disclaimer

ORBIFLY MET'MAP TEAM :

Programming & Development : Alexandra Zaïnal
Concept & Development : Baudouin d'Aumeries
Co-Development & Prog : Marc-Olivier Méhu
Technical & hardware support : Manuel Goepfert

Contact : metmap@orbifly.com




SOURCES & CREDITS :

   NOAA       Earth
Advisory